sensor_id;sensor_type;location;lat;lon;timestamp;pressure;altitude;pressure_sealevel;temperature;humidity
38558;BME280;24333;42.626;23.308;2023-05-03T00:33:15;70323.56;;;-148.95;43.75
38558;BME280;24333;42.626;23.308;2023-05-03T00:35:44;70325.66;;;-148.95;44.15
38558;BME280;24333;42.626;23.308;2023-05-03T00:38:10;70331.88;;;-148.95;43.48
38558;BME280;24333;42.626;23.308;2023-05-03T00:48:21;70363.00;;;-148.95;42.76
38558;BME280;24333;42.626;23.308;2023-05-03T00:51:13;70367.16;;;-148.95;43.10
38558;BME280;24333;42.626;23.308;2023-05-03T01:01:25;70389.97;;;-148.95;43.00
38558;BME280;24333;42.626;23.308;2023-05-03T01:09:51;70383.75;;;-148.95;44.64
38558;BME280;24333;42.626;23.308;2023-05-03T01:22:09;70373.38;;;-148.95;44.02
38558;BME280;24333;42.626;23.308;2023-05-03T01:24:40;70383.75;;;-148.95;43.68
38558;BME280;24333;42.626;23.308;2023-05-03T01:27:06;70383.75;;;-148.95;43.64
38558;BME280;24333;42.626;23.308;2023-05-03T01:29:34;70387.91;;;-148.95;43.34
38558;BME280;24333;42.626;23.308;2023-05-03T01:32:04;70389.97;;;-148.95;43.72
38558;BME280;24333;42.626;23.308;2023-05-03T02:36:17;70410.72;;;-148.95;47.57
38558;BME280;24333;42.626;23.308;2023-05-03T02:38:47;70406.56;;;-148.95;46.15
38558;BME280;24333;42.626;23.308;2023-05-03T02:41:35;70410.72;;;-148.95;46.99
38558;BME280;24333;42.626;23.308;2023-05-03T02:44:07;70414.88;;;-148.95;46.14
38558;BME280;24333;42.626;23.308;2023-05-03T02:46:32;70408.63;;;-148.95;46.86
38558;BME280;24333;42.626;23.308;2023-05-03T07:14:03;70317.34;;;-148.95;54.49
38558;BME280;24333;42.626;23.308;2023-05-03T07:16:29;70321.50;;;-148.95;54.37
38558;BME280;24333;42.626;23.308;2023-05-03T07:18:54;70296.59;;;-148.95;53.78
38558;BME280;24333;42.626;23.308;2023-05-03T07:21:39;70306.97;;;-148.95;54.95
38558;BME280;24333;42.626;23.308;2023-05-03T07:24:06;70315.28;;;-148.95;54.62
38558;BME280;24333;42.626;23.308;2023-05-03T07:26:32;70331.88;;;-148.95;54.73
38558;BME280;24333;42.626;23.308;2023-05-03T07:29:06;70313.19;;;-148.95;54.33
38558;BME280;24333;42.626;23.308;2023-05-03T07:35:19;70338.09;;;-148.95;57.14
38558;BME280;24333;42.626;23.308;2023-05-03T07:37:47;70321.50;;;-148.95;56.44
38558;BME280;24333;42.626;23.308;2023-05-03T07:40:24;70321.50;;;-148.95;56.70
38558;BME280;24333;42.626;23.308;2023-05-03T07:43:30;70315.28;;;-148.95;55.93
38558;BME280;24333;42.626;23.308;2023-05-03T07:45:59;70317.34;;;-148.95;55.59
38558;BME280;24333;42.626;23.308;2023-05-03T07:48:45;70292.47;;;-148.95;54.70
38558;BME280;24333;42.626;23.308;2023-05-03T11:56:57;69259.41;;;-148.95;36.68
38558;BME280;24333;42.626;23.308;2023-05-03T11:59:35;69228.31;;;-148.95;36.39
38558;BME280;24333;42.626;23.308;2023-05-03T12:02:05;69184.75;;;-148.95;36.33
38558;BME280;24333;42.626;23.308;2023-05-03T12:04:50;69137.03;;;-148.95;35.72
38558;BME280;24333;42.626;23.308;2023-05-03T12:29:03;69298.81;;;-148.95;37.27
38558;BME280;24333;42.626;23.308;2023-05-03T12:31:50;69350.69;;;-148.95;37.67
38558;BME280;24333;42.626;23.308;2023-05-03T12:34:26;69396.31;;;-148.95;38.01
38558;BME280;24333;42.626;23.308;2023-05-03T12:44:38;69564.31;;;-148.95;40.84
38558;BME280;24333;42.626;23.308;2023-05-03T12:47:11;69620.31;;;-148.95;41.43
38558;BME280;24333;42.626;23.308;2023-05-03T12:49:38;69641.06;;;-148.95;42.09
38558;BME280;24333;42.626;23.308;2023-05-03T12:52:04;69665.97;;;-148.95;43.08
38558;BME280;24333;42.626;23.308;2023-05-03T12:54:29;69707.44;;;-148.95;44.23
38558;BME280;24333;42.626;23.308;2023-05-03T13:57:47;70178.34;;;-148.95;100.00
38558;BME280;24333;42.626;23.308;2023-05-03T14:03:42;70190.78;;;-148.95;100.00
38558;BME280;24333;42.626;23.308;2023-05-03T14:20:51;70186.66;;;-148.95;100.00
38558;BME280;24333;42.626;23.308;2023-05-03T14:34:04;70159.69;;;-148.95;100.00
38558;BME280;24333;42.626;23.308;2023-05-03T14:43:02;70178.34;;;-148.95;100.00
38558;BME280;24333;42.626;23.308;2023-05-03T14:48:49;70211.53;;;-148.95;100.00
38558;BME280;24333;42.626;23.308;2023-05-03T16:51:31;70340.19;;;-148.95;100.00
38558;BME280;24333;42.626;23.308;2023-05-03T16:54:27;70336.03;;;-148.95;100.00
38558;BME280;24333;42.626;23.308;2023-05-03T16:56:59;70338.09;;;-148.95;100.00
38558;BME280;24333;42.626;23.308;2023-05-03T17:12:49;70367.16;;;-148.95;100.00
38558;BME280;24333;42.626;23.308;2023-05-03T17:15:53;70375.44;;;-148.95;100.00
38558;BME280;24333;42.626;23.308;2023-05-03T17:18:40;70379.59;;;-148.95;100.00
38558;BME280;24333;42.626;23.308;2023-05-03T17:21:08;70371.28;;;-148.95;100.00
38558;BME280;24333;42.626;23.308;2023-05-03T17:23:36;70381.66;;;-148.95;100.00
38558;BME280;24333;42.626;23.308;2023-05-03T17:47:08;70387.91;;;-148.95;100.00
38558;BME280;24333;42.626;23.308;2023-05-03T17:49:39;70385.81;;;-148.95;100.00
38558;BME280;24333;42.626;23.308;2023-05-03T17:52:04;70396.19;;;-148.95;100.00
38558;BME280;24333;42.626;23.308;2023-05-03T17:54:31;70408.63;;;-148.95;100.00
38558;BME280;24333;42.626;23.308;2023-05-03T17:56:56;70412.78;;;-148.95;100.00
38558;BME280;24333;42.626;23.308;2023-05-03T17:59:23;70412.78;;;-148.95;100.00
38558;BME280;24333;42.626;23.308;2023-05-03T18:01:54;70421.09;;;-148.95;100.00
38558;BME280;24333;42.626;23.308;2023-05-03T18:04:23;70429.38;;;-148.95;100.00
38558;BME280;24333;42.626;23.308;2023-05-03T18:06:53;70431.47;;;-148.95;100.00
38558;BME280;24333;42.626;23.308;2023-05-03T18:09:19;70439.75;;;-148.95;100.00
38558;BME280;24333;42.626;23.308;2023-05-03T18:11:48;70441.84;;;-148.95;100.00
38558;BME280;24333;42.626;23.308;2023-05-03T19:20:15;70526.91;;;-148.95;100.00
38558;BME280;24333;42.626;23.308;2023-05-03T19:22:46;70526.91;;;-148.95;100.00
38558;BME280;24333;42.626;23.308;2023-05-03T19:25:13;70520.69;;;-148.95;100.00
38558;BME280;24333;42.626;23.308;2023-05-03T19:27:40;70516.53;;;-148.95;100.00
38558;BME280;24333;42.626;23.308;2023-05-03T19:30:07;70524.84;;;-148.95;100.00
38558;BME280;24333;42.626;23.308;2023-05-03T19:32:45;70518.59;;;-148.95;100.00
38558;BME280;24333;42.626;23.308;2023-05-03T19:35:12;70518.59;;;-148.95;100.00
38558;BME280;24333;42.626;23.308;2023-05-03T21:50:45;70622.34;;;-148.95;100.00
38558;BME280;24333;42.626;23.308;2023-05-03T22:08:45;70611.97;;;-148.95;100.00
38558;BME280;24333;42.626;23.308;2023-05-03T22:11:12;70599.53;;;-148.95;100.00
38558;BME280;24333;42.626;23.308;2023-05-03T22:13:38;70599.53;;;-148.95;100.00
38558;BME280;24333;42.626;23.308;2023-05-03T22:16:40;70591.22;;;-148.95;100.00
38558;BME280;24333;42.626;23.308;2023-05-03T22:55:21;70541.44;;;-148.95;100.00
38558;BME280;24333;42.626;23.308;2023-05-03T22:57:47;70537.28;;;-148.95;100.00
38558;BME280;24333;42.626;23.308;2023-05-03T23:00:21;70539.34;;;-148.95;100.00
38558;BME280;24333;42.626;23.308;2023-05-03T23:02:47;70545.56;;;-148.95;100.00
38558;BME280;24333;42.626;23.308;2023-05-03T23:05:14;70562.19;;;-148.95;100.00
38558;BME280;24333;42.626;23.308;2023-05-03T23:16:23;70539.34;;;-148.95;100.00
38558;BME280;24333;42.626;23.308;2023-05-03T23:19:28;70537.28;;;-148.95;100.00
38558;BME280;24333;42.626;23.308;2023-05-03T23:21:54;70541.44;;;-148.95;100.00
38558;BME280;24333;42.626;23.308;2023-05-03T23:24:20;70539.34;;;-148.95;100.00
38558;BME280;24333;42.626;23.308;2023-05-03T23:27:20;70533.13;;;-148.95;100.00
38558;BME280;24333;42.626;23.308;2023-05-03T23:29:46;70543.50;;;-148.95;100.00
38558;BME280;24333;42.626;23.308;2023-05-03T23:32:12;70539.34;;;-148.95;100.00
38558;BME280;24333;42.626;23.308;2023-05-03T23:34:38;70543.50;;;-148.95;100.00
